Time;durP1;ratioP1;P1;durP2;ratioP2;P2;SDS_P1;SDS_P2;PMS_P1;PMS_P2;Temp;Humidity;BMP_temperature;BMP_pressure;BME280_temperature;BME280_humidity;BME280_pressure;Samples;Min_cycle;Max_cycle;Signal;HPM_P1;HPM_P2
2022/01/29 00:01:28;;;;;;;30.42;12.13;;;;;;;;;;6224723;22;20022;-79
2022/01/29 00:03:53;;;;;;;34.67;12.27;;;;;;;;;;6249280;22;20008;-79
2022/01/29 00:06:19;;;;;;;33.38;12.65;;;;;;;;;;6249569;22;20004;-79
2022/01/29 00:08:44;;;;;;;29.08;11.98;;;;;;;;;;6224000;22;20008;-79
2022/01/29 00:11:13;;;;;;;33.40;12.65;;;;;;;;;;6249897;22;19999;-79
2022/01/29 00:13:39;;;;;;;33.97;13.00;;;;;;;;;;6226094;22;20416;-78
2022/01/29 00:16:05;;;;;;;32.00;12.30;;;;;;;;;;6201330;22;19999;-78
2022/01/29 00:18:30;;;;;;;32.97;12.77;;;;;;;;;;6224064;22;20011;-78
2022/01/29 00:20:55;;;;;;;29.08;11.98;;;;;;;;;;6224242;22;20000;-78
2022/01/29 00:23:21;;;;;;;30.55;12.23;;;;;;;;;;6223873;22;20003;-78
2022/01/29 00:25:46;;;;;;;32.50;10.82;;;;;;;;;;6224240;22;20450;-79
2022/01/29 00:28:13;;;;;;;31.85;12.82;;;;;;;;;;6248994;22;20050;-78
2022/01/29 00:30:42;;;;;;;25.38;10.18;;;;;;;;;;6224661;22;20035;-78
2022/01/29 00:33:08;;;;;;;33.42;12.57;;;;;;;;;;6250076;22;20079;-78
2022/01/29 00:35:34;;;;;;;33.97;12.32;;;;;;;;;;6249599;22;20392;-78
2022/01/29 00:37:59;;;;;;;30.05;12.20;;;;;;;;;;6277415;22;20031;-78
2022/01/29 00:40:25;;;;;;;34.40;12.40;;;;;;;;;;6276248;22;19999;-79
2022/01/29 00:42:50;;;;;;;29.80;12.23;;;;;;;;;;6223588;22;20007;-78
2022/01/29 00:45:16;;;;;;;29.08;13.00;;;;;;;;;;6249162;22;20470;-79
2022/01/29 00:47:41;;;;;;;36.25;14.00;;;;;;;;;;6249153;22;20006;-78
2022/01/29 00:50:08;;;;;;;41.40;15.43;;;;;;;;;;6249339;22;20085;-79
2022/01/29 00:52:33;;;;;;;41.67;14.60;;;;;;;;;;6224688;22;20401;-79
2022/01/29 00:54:59;;;;;;;36.80;13.20;;;;;;;;;;6276118;22;20010;-78
2022/01/29 00:57:28;;;;;;;32.03;12.05;;;;;;;;;;6228030;22;20518;-79
2022/01/29 00:59:54;;;;;;;37.92;13.50;;;;;;;;;;6251664;22;20000;-78
2022/01/29 01:02:19;;;;;;;31.15;12.48;;;;;;;;;;6275969;22;20018;-79
2022/01/29 01:04:45;;;;;;;32.05;12.32;;;;;;;;;;6249093;22;20012;-79
2022/01/29 01:07:10;;;;;;;26.27;11.80;;;;;;;;;;6249025;22;20023;-79
2022/01/29 01:09:36;;;;;;;23.65;10.85;;;;;;;;;;6276112;22;20083;-80
2022/01/29 01:12:02;;;;;;;23.83;11.18;;;;;;;;;;6249495;22;20030;-78
2022/01/29 01:14:28;;;;;;;22.67;10.15;;;;;;;;;;6252781;22;20347;-78
2022/01/29 01:16:53;;;;;;;24.20;11.05;;;;;;;;;;6249466;22;20000;-77
2022/01/29 01:19:19;;;;;;;26.98;10.50;;;;;;;;;;6250558;22;20008;-79
2022/01/29 01:21:45;;;;;;;23.00;9.02;;;;;;;;;;6227040;22;20083;-78
2022/01/29 01:24:11;;;;;;;22.80;9.52;;;;;;;;;;6224170;22;20050;-78
2022/01/29 01:26:36;;;;;;;21.48;8.60;;;;;;;;;;6248758;22;20011;-78
2022/01/29 01:29:02;;;;;;;21.25;8.45;;;;;;;;;;6248764;22;19995;-78
2022/01/29 01:31:27;;;;;;;23.13;9.10;;;;;;;;;;6248968;22;20057;-79
2022/01/29 01:33:53;;;;;;;17.15;8.73;;;;;;;;;;6249131;22;20693;-79
2022/01/29 01:36:23;;;;;;;19.23;8.68;;;;;;;;;;6249011;22;20074;-78
2022/01/29 01:38:59;;;;;;;22.77;9.83;;;;;;;;;;6275455;22;20004;-79
2022/01/29 01:41:26;;;;;;;24.23;9.88;;;;;;;;;;6228546;22;20234;-79
2022/01/29 01:43:59;;;;;;;27.70;11.65;;;;;;;;;;6227468;22;20012;-79
2022/01/29 01:46:24;;;;;;;23.02;10.02;;;;;;;;;;6248576;22;20004;-79
2022/01/29 01:48:50;;;;;;;25.75;10.52;;;;;;;;;;6248606;22;20407;-79
2022/01/29 01:51:15;;;;;;;21.67;9.70;;;;;;;;;;6248399;22;20041;-79
2022/01/29 01:53:41;;;;;;;34.75;11.98;;;;;;;;;;6248113;22;20010;-79
2022/01/29 01:56:06;;;;;;;23.88;11.00;;;;;;;;;;6223576;22;20057;-78
2022/01/29 01:58:32;;;;;;;23.80;10.60;;;;;;;;;;6275564;22;20437;-79
2022/01/29 02:00:57;;;;;;;27.02;11.50;;;;;;;;;;6275643;22;20006;-79
2022/01/29 02:03:23;;;;;;;32.15;12.15;;;;;;;;;;6248135;22;20004;-79
2022/01/29 02:05:48;;;;;;;23.98;11.32;;;;;;;;;;6278407;22;20003;-79
2022/01/29 02:08:15;;;;;;;30.27;11.73;;;;;;;;;;6277324;22;20003;-79
2022/01/29 02:10:45;;;;;;;26.35;11.63;;;;;;;;;;6278601;22;20003;-79
2022/01/29 02:13:10;;;;;;;19.45;9.20;;;;;;;;;;6276161;22;20007;-80
2022/01/29 02:15:36;;;;;;;18.92;9.50;;;;;;;;;;6275822;22;20030;-79
2022/01/29 02:18:01;;;;;;;24.58;10.00;;;;;;;;;;6279832;22;20007;-79
2022/01/29 02:20:29;;;;;;;24.33;9.45;;;;;;;;;;6250462;22;20004;-79
2022/01/29 02:22:55;;;;;;;23.60;9.40;;;;;;;;;;6248380;22;20034;-79
2022/01/29 02:25:40;;;;;;;26.05;11.05;;;;;;;;;;6275551;22;20000;-79
2022/01/29 02:28:13;;;;;;;23.70;9.63;;;;;;;;;;6224610;22;20028;-79
2022/01/29 02:30:40;;;;;;;29.90;12.77;;;;;;;;;;6228523;22;20006;-80
2022/01/29 02:33:10;;;;;;;31.98;14.45;;;;;;;;;;6247713;22;19996;-79
2022/01/29 02:35:49;;;;;;;41.33;17.23;;;;;;;;;;6250348;22;19999;-79
2022/01/29 02:38:17;;;;;;;43.17;19.38;;;;;;;;;;6250528;22;20004;-79
2022/01/29 02:40:48;;;;;;;50.20;21.45;;;;;;;;;;6248358;22;19996;-79
2022/01/29 02:43:23;;;;;;;49.95;20.58;;;;;;;;;;6274878;22;20015;-79
2022/01/29 02:45:52;;;;;;;44.47;17.02;;;;;;;;;;6248358;22;20081;-79
2022/01/29 02:48:18;;;;;;;42.95;17.25;;;;;;;;;;6223900;22;20323;-79
2022/01/29 02:50:43;;;;;;;39.55;16.23;;;;;;;;;;6275875;22;20127;-79
2022/01/29 02:53:09;;;;;;;40.28;14.88;;;;;;;;;;6248919;22;20338;-79
2022/01/29 02:55:34;;;;;;;42.10;15.18;;;;;;;;;;6248242;22;20000;-79
2022/01/29 02:58:00;;;;;;;38.13;15.63;;;;;;;;;;6275145;22;20008;-79
2022/01/29 03:00:25;;;;;;;32.72;13.25;;;;;;;;;;6248107;22;20042;-79
2022/01/29 03:02:51;;;;;;;39.33;13.77;;;;;;;;;;6222416;22;21938;-79
2022/01/29 03:05:17;;;;;;;36.22;14.07;;;;;;;;;;6274779;22;20011;-79
2022/01/29 03:07:42;;;;;;;30.92;13.68;;;;;;;;;;6247672;22;20007;-78
2022/01/29 03:10:08;;;;;;;29.52;13.48;;;;;;;;;;6222850;22;20082;-79
2022/01/29 03:12:33;;;;;;;30.75;13.07;;;;;;;;;;6247870;22;20000;-79
2022/01/29 03:14:59;;;;;;;35.53;14.00;;;;;;;;;;6224686;22;20015;-78
2022/01/29 03:17:24;;;;;;;29.52;13.27;;;;;;;;;;6275070;22;20004;-78
2022/01/29 03:19:53;;;;;;;32.70;13.48;;;;;;;;;;6274979;22;20125;-79
2022/01/29 03:22:19;;;;;;;36.03;14.18;;;;;;;;;;6198720;22;20460;-79
2022/01/29 03:24:45;;;;;;;34.35;14.50;;;;;;;;;;6276099;22;20018;-79
2022/01/29 03:27:11;;;;;;;30.15;14.20;;;;;;;;;;6276911;22;20067;-79
2022/01/29 03:29:36;;;;;;;33.47;12.95;;;;;;;;;;6224926;22;20006;-79
2022/01/29 03:32:02;;;;;;;37.35;14.45;;;;;;;;;;6249934;22;20000;-79
2022/01/29 03:34:28;;;;;;;28.33;12.82;;;;;;;;;;6276983;22;20188;-78
2022/01/29 03:36:55;;;;;;;30.52;14.88;;;;;;;;;;6277453;22;20038;-79
2022/01/29 03:39:21;;;;;;;32.33;13.35;;;;;;;;;;6226132;22;20409;-79
2022/01/29 03:41:47;;;;;;;30.88;13.27;;;;;;;;;;6250095;22;20019;-78
2022/01/29 03:44:13;;;;;;;37.15;13.32;;;;;;;;;;6224568;22;20014;-79
2022/01/29 03:46:38;;;;;;;31.90;13.10;;;;;;;;;;6225084;22;20003;-79
2022/01/29 03:49:04;;;;;;;38.55;14.98;;;;;;;;;;6249805;22;20427;-79
2022/01/29 03:51:29;;;;;;;32.92;13.13;;;;;;;;;;6224445;22;20061;-79
2022/01/29 03:53:55;;;;;;;31.95;13.68;;;;;;;;;;6224329;22;20086;-79
2022/01/29 03:56:20;;;;;;;33.78;14.02;;;;;;;;;;6224693;22;20004;-78
2022/01/29 03:58:46;;;;;;;45.72;17.17;;;;;;;;;;6279808;22;20011;-79
2022/01/29 04:01:11;;;;;;;51.67;18.67;;;;;;;;;;6252842;22;20003;-78
2022/01/29 04:03:37;;;;;;;49.80;17.08;;;;;;;;;;6277852;22;20007;-79
2022/01/29 04:06:02;;;;;;;67.22;20.20;;;;;;;;;;6224150;22;20078;-79
2022/01/29 04:08:28;;;;;;;70.65;21.33;;;;;;;;;;6249482;22;20379;-79
2022/01/29 04:10:53;;;;;;;125.10;28.67;;;;;;;;;;6224113;22;20027;-79
2022/01/29 04:13:24;;;;;;;189.40;39.70;;;;;;;;;;6277077;22;20336;-78
2022/01/29 04:15:50;;;;;;;175.10;39.20;;;;;;;;;;6250637;22;20004;-79
2022/01/29 04:18:15;;;;;;;224.45;44.50;;;;;;;;;;6276338;22;20031;-79
2022/01/29 04:20:41;;;;;;;202.10;39.50;;;;;;;;;;6250881;22;20007;-79
2022/01/29 04:23:07;;;;;;;213.88;40.85;;;;;;;;;;6252124;22;20033;-79
2022/01/29 04:25:32;;;;;;;209.35;41.08;;;;;;;;;;6225054;22;20015;-79
2022/01/29 04:27:58;;;;;;;196.60;37.95;;;;;;;;;;6224265;22;20057;-78
2022/01/29 04:35:17;;;;;;;153.40;32.55;;;;;;;;;;6276533;22;20014;-79
2022/01/29 04:37:43;;;;;;;130.02;29.10;;;;;;;;;;6249186;22;20337;-79
2022/01/29 04:40:09;;;;;;;146.18;32.80;;;;;;;;;;6276149;22;19999;-79
2022/01/29 04:42:35;;;;;;;118.18;28.90;;;;;;;;;;6249113;22;20003;-79
2022/01/29 04:45:00;;;;;;;132.43;30.90;;;;;;;;;;6278671;22;20054;-79
2022/01/29 04:47:26;;;;;;;93.82;27.60;;;;;;;;;;6249269;22;20457;-79
2022/01/29 04:49:51;;;;;;;80.20;23.85;;;;;;;;;;6276117;22;20004;-79
2022/01/29 04:52:16;;;;;;;111.47;29.85;;;;;;;;;;6249423;22;20030;-79
2022/01/29 04:54:42;;;;;;;88.72;26.25;;;;;;;;;;6224565;22;20058;-78
2022/01/29 04:57:07;;;;;;;79.18;24.58;;;;;;;;;;6276465;22;20415;-79
2022/01/29 04:59:33;;;;;;;55.25;19.52;;;;;;;;;;6276886;22;20011;-79
2022/01/29 05:01:58;;;;;;;58.65;21.52;;;;;;;;;;6249349;22;20493;-79
2022/01/29 05:04:24;;;;;;;59.03;20.08;;;;;;;;;;6276046;22;20014;-79
2022/01/29 05:06:49;;;;;;;56.78;21.75;;;;;;;;;;6251967;22;19996;-79
2022/01/29 05:09:15;;;;;;;49.53;19.90;;;;;;;;;;6250133;22;20447;-79
2022/01/29 05:11:44;;;;;;;60.25;20.30;;;;;;;;;;6223975;22;20004;-79
2022/01/29 05:14:17;;;;;;;58.00;20.35;;;;;;;;;;6249823;22;20011;-78
2022/01/29 05:26:50;;;;;;;52.00;19.77;;;;;;;;;;6192837;22;20797;-78
2022/01/29 05:27:48;;;;;;;48.33;18.77;;;;;;;;;;6253940;22;20374;-80
2022/01/29 05:30:13;;;;;;;49.60;19.88;;;;;;;;;;6228586;22;20007;-79
2022/01/29 05:32:39;;;;;;;53.15;20.90;;;;;;;;;;6280183;22;20070;-82
2022/01/29 05:35:05;;;;;;;59.05;20.25;;;;;;;;;;6276441;22;20000;-82
2022/01/29 05:37:30;;;;;;;56.03;21.27;;;;;;;;;;6249338;22;20003;-82
2022/01/29 05:39:55;;;;;;;51.95;21.05;;;;;;;;;;6224426;22;20015;-81
2022/01/29 05:42:21;;;;;;;48.28;19.95;;;;;;;;;;6276200;22;20089;-81
2022/01/29 05:44:46;;;;;;;51.47;19.95;;;;;;;;;;6276115;22;20011;-80
2022/01/29 05:47:12;;;;;;;51.28;20.58;;;;;;;;;;6223512;22;20039;-80
2022/01/29 05:49:37;;;;;;;44.88;18.95;;;;;;;;;;6223928;22;20007;-81
2022/01/29 05:52:03;;;;;;;42.40;17.52;;;;;;;;;;6227048;22;20027;-80
2022/01/29 05:54:28;;;;;;;44.17;16.75;;;;;;;;;;6248828;22;20007;-80
2022/01/29 05:56:54;;;;;;;37.95;16.48;;;;;;;;;;6275757;22;20407;-80
2022/01/29 05:59:19;;;;;;;44.08;18.10;;;;;;;;;;6199657;22;20086;-80
2022/01/29 06:01:45;;;;;;;46.33;17.05;;;;;;;;;;6198435;22;20030;-80
2022/01/29 06:04:11;;;;;;;41.63;17.05;;;;;;;;;;6223162;22;20004;-81
2022/01/29 06:06:37;;;;;;;37.10;16.35;;;;;;;;;;6248532;22;20008;-81
2022/01/29 06:09:04;;;;;;;48.38;17.33;;;;;;;;;;6223699;22;20079;-81
2022/01/29 06:11:31;;;;;;;51.15;18.73;;;;;;;;;;6256814;22;20004;-80
2022/01/29 06:13:57;;;;;;;48.08;19.55;;;;;;;;;;6224286;22;20007;-81
2022/01/29 06:16:22;;;;;;;42.90;18.85;;;;;;;;;;6222975;22;20063;-81
2022/01/29 06:18:48;;;;;;;58.63;21.70;;;;;;;;;;6248940;22;20000;-81
2022/01/29 06:21:14;;;;;;;66.38;24.05;;;;;;;;;;6275336;22;20012;-81
2022/01/29 06:23:40;;;;;;;58.80;21.63;;;;;;;;;;6248566;22;20004;-81
2022/01/29 06:26:09;;;;;;;62.25;24.15;;;;;;;;;;6248662;22;20010;-81
2022/01/29 06:28:34;;;;;;;60.08;23.17;;;;;;;;;;6199022;22;20464;-81
2022/01/29 06:31:00;;;;;;;65.88;24.20;;;;;;;;;;6210302;22;20007;-80
2022/01/29 06:33:26;;;;;;;55.97;21.15;;;;;;;;;;6248815;22;20467;-82
2022/01/29 06:35:51;;;;;;;58.15;21.48;;;;;;;;;;6223517;22;20450;-81
2022/01/29 06:38:17;;;;;;;77.53;26.70;;;;;;;;;;6223564;22;20004;-81
2022/01/29 06:40:42;;;;;;;105.93;32.15;;;;;;;;;;6198692;22;20008;-81
2022/01/29 06:43:08;;;;;;;54.67;21.20;;;;;;;;;;6198765;22;20003;-81
2022/01/29 06:45:35;;;;;;;65.05;22.92;;;;;;;;;;6222876;22;20003;-81
2022/01/29 06:48:00;;;;;;;62.63;24.35;;;;;;;;;;6198146;22;19999;-81
2022/01/29 06:50:26;;;;;;;60.35;24.60;;;;;;;;;;6209153;22;20442;-80
2022/01/29 06:52:52;;;;;;;56.35;22.33;;;;;;;;;;6198541;22;20003;-79
2022/01/29 06:55:17;;;;;;;58.38;22.42;;;;;;;;;;6198036;22;20003;-80
2022/01/29 06:57:43;;;;;;;52.08;20.65;;;;;;;;;;6222621;22;20116;-80
2022/01/29 07:00:09;;;;;;;52.47;21.48;;;;;;;;;;6221956;22;20447;-79
2022/01/29 07:02:35;;;;;;;58.47;23.00;;;;;;;;;;6248347;22;20007;-80
2022/01/29 07:05:00;;;;;;;55.17;22.45;;;;;;;;;;6274912;22;20030;-82
2022/01/29 07:07:26;;;;;;;50.67;20.15;;;;;;;;;;6250760;22;20000;-80
2022/01/29 07:09:53;;;;;;;53.22;18.98;;;;;;;;;;6261285;22;20003;-81
2022/01/29 07:12:19;;;;;;;47.22;19.02;;;;;;;;;;6250640;22;19999;-82
2022/01/29 07:14:49;;;;;;;53.15;20.50;;;;;;;;;;6274608;22;20015;-82
2022/01/29 07:17:17;;;;;;;58.50;21.73;;;;;;;;;;6248299;22;20466;-80
2022/01/29 07:19:45;;;;;;;44.22;18.25;;;;;;;;;;6224740;22;20014;-81
2022/01/29 07:22:12;;;;;;;45.00;17.70;;;;;;;;;;6248805;22;20007;-81
2022/01/29 07:24:38;;;;;;;53.33;21.13;;;;;;;;;;6249235;22;20019;-81
2022/01/29 07:27:05;;;;;;;42.13;19.63;;;;;;;;;;6224889;22;20004;-82
2022/01/29 07:29:31;;;;;;;41.95;18.33;;;;;;;;;;6230736;22;20099;-83
2022/01/29 07:31:57;;;;;;;54.92;23.63;;;;;;;;;;6282560;22;20051;-82
2022/01/29 07:34:23;;;;;;;35.28;15.60;;;;;;;;;;6276839;22;20007;-81
2022/01/29 07:36:50;;;;;;;40.55;15.40;;;;;;;;;;6248123;22;20007;-82
2022/01/29 07:39:16;;;;;;;42.80;19.35;;;;;;;;;;6276470;22;20058;-81
2022/01/29 07:41:42;;;;;;;45.38;16.05;;;;;;;;;;6276473;22;20057;-79
2022/01/29 07:44:07;;;;;;;45.17;18.70;;;;;;;;;;6279238;22;20369;-81
2022/01/29 07:46:33;;;;;;;36.25;15.48;;;;;;;;;;6249558;22;20004;-81
2022/01/29 07:48:59;;;;;;;48.70;21.50;;;;;;;;;;6281983;22;20057;-82
2022/01/29 07:51:25;;;;;;;42.55;19.13;;;;;;;;;;6278940;22;20451;-81
2022/01/29 07:53:51;;;;;;;38.47;16.92;;;;;;;;;;6280776;22;20000;-81
2022/01/29 07:56:17;;;;;;;37.13;14.52;;;;;;;;;;6251474;22;20003;-84
2022/01/29 07:58:42;;;;;;;36.10;14.98;;;;;;;;;;6226298;22;20060;-82
2022/01/29 08:01:08;;;;;;;32.33;14.23;;;;;;;;;;6251271;22;20039;-81
2022/01/29 08:03:33;;;;;;;26.40;10.93;;;;;;;;;;6252757;22;20069;-81
2022/01/29 08:05:59;;;;;;;64.47;21.95;;;;;;;;;;6276140;22;20011;-81
2022/01/29 08:08:24;;;;;;;29.50;11.27;;;;;;;;;;6282301;22;20030;-82
2022/01/29 08:10:50;;;;;;;35.65;12.23;;;;;;;;;;6280234;22;20004;-82
2022/01/29 08:13:16;;;;;;;17.48;9.77;;;;;;;;;;6225364;22;20030;-81
2022/01/29 08:15:41;;;;;;;29.83;14.07;;;;;;;;;;6281529;22;20008;-84
2022/01/29 08:18:07;;;;;;;25.35;10.88;;;;;;;;;;6227788;22;20485;-85
2022/01/29 08:20:32;;;;;;;31.42;12.02;;;;;;;;;;6225872;22;20007;-82
2022/01/29 08:22:58;;;;;;;33.20;13.52;;;;;;;;;;6224954;22;20007;-80
2022/01/29 08:25:23;;;;;;;27.95;13.55;;;;;;;;;;6236639;22;20004;-82
2022/01/29 08:27:49;;;;;;;28.77;10.60;;;;;;;;;;6220754;22;20317;-79
2022/01/29 08:30:14;;;;;;;19.70;9.20;;;;;;;;;;6277870;22;20014;-80
2022/01/29 08:32:43;;;;;;;21.52;8.32;;;;;;;;;;6230020;22;20003;-82
2022/01/29 08:35:10;;;;;;;24.13;11.93;;;;;;;;;;6277277;22;20035;-81
2022/01/29 08:37:36;;;;;;;17.08;8.27;;;;;;;;;;6254911;22;20004;-82
2022/01/29 08:40:01;;;;;;;27.40;9.95;;;;;;;;;;6282073;22;20000;-83
2022/01/29 08:42:27;;;;;;;19.05;10.52;;;;;;;;;;6253956;22;20423;-83
2022/01/29 08:44:52;;;;;;;17.75;8.68;;;;;;;;;;6277088;22;20039;-81
2022/01/29 08:47:18;;;;;;;30.85;10.75;;;;;;;;;;6254209;22;20061;-81
2022/01/29 08:49:43;;;;;;;24.92;11.35;;;;;;;;;;6278891;22;19999;-83
2022/01/29 08:52:08;;;;;;;21.23;11.00;;;;;;;;;;6226002;22;20014;-80
2022/01/29 08:54:34;;;;;;;29.90;12.75;;;;;;;;;;6252182;22;20010;-83
2022/01/29 08:56:59;;;;;;;26.45;9.50;;;;;;;;;;6227839;22;20520;-82
2022/01/29 08:59:25;;;;;;;54.78;19.83;;;;;;;;;;6251778;22;20000;-81
2022/01/29 09:01:50;;;;;;;38.97;15.13;;;;;;;;;;6202844;22;20011;-82
2022/01/29 09:04:16;;;;;;;32.05;15.25;;;;;;;;;;6252541;22;20004;-80
2022/01/29 09:06:41;;;;;;;32.90;17.25;;;;;;;;;;6280311;22;20011;-81
2022/01/29 09:09:08;;;;;;;25.45;13.40;;;;;;;;;;6228269;22;20000;-82
2022/01/29 09:11:34;;;;;;;18.52;8.98;;;;;;;;;;6277203;22;19999;-81
2022/01/29 09:13:59;;;;;;;49.80;22.15;;;;;;;;;;6278316;22;20480;-80
2022/01/29 09:16:25;;;;;;;24.73;12.82;;;;;;;;;;6251874;22;20000;-80
2022/01/29 09:18:51;;;;;;;16.48;5.97;;;;;;;;;;6199087;22;20427;-79
2022/01/29 09:21:16;;;;;;;20.13;8.10;;;;;;;;;;6278378;22;20071;-82
2022/01/29 09:23:42;;;;;;;19.73;8.13;;;;;;;;;;6252812;22;20077;-83
2022/01/29 09:26:08;;;;;;;21.50;8.93;;;;;;;;;;6227340;22;20086;-82
2022/01/29 09:28:33;;;;;;;18.73;7.82;;;;;;;;;;6256260;22;20004;-82
2022/01/29 09:30:59;;;;;;;20.17;10.52;;;;;;;;;;6225067;22;20004;-81
2022/01/29 09:33:24;;;;;;;15.35;7.28;;;;;;;;;;6250339;22;20053;-82
2022/01/29 09:35:50;;;;;;;16.55;7.68;;;;;;;;;;6278876;22;20026;-82
2022/01/29 09:38:15;;;;;;;11.02;5.78;;;;;;;;;;6250174;22;20449;-81
2022/01/29 09:40:41;;;;;;;17.25;7.03;;;;;;;;;;6252799;22;20006;-79
2022/01/29 09:43:08;;;;;;;89.75;34.70;;;;;;;;;;6225419;22;20015;-81
2022/01/29 09:45:34;;;;;;;35.25;9.85;;;;;;;;;;6223866;22;20358;-81
2022/01/29 09:48:03;;;;;;;42.88;22.98;;;;;;;;;;6279430;22;20034;-80
2022/01/29 09:50:30;;;;;;;40.92;21.00;;;;;;;;;;6224963;22;20452;-81
2022/01/29 09:52:56;;;;;;;25.42;11.00;;;;;;;;;;6250926;22;20003;-80
2022/01/29 09:55:23;;;;;;;29.63;14.25;;;;;;;;;;6226512;22;20000;-81
2022/01/29 09:57:49;;;;;;;15.05;7.50;;;;;;;;;;6249582;22;20078;-80
2022/01/29 10:00:15;;;;;;;17.70;7.10;;;;;;;;;;6226515;22;20027;-82
2022/01/29 10:02:41;;;;;;;24.02;9.77;;;;;;;;;;6277851;22;20004;-82
2022/01/29 10:05:09;;;;;;;25.63;11.48;;;;;;;;;;6277893;22;20029;-85
2022/01/29 10:07:34;;;;;;;28.45;11.93;;;;;;;;;;6283406;22;20000;-82
2022/01/29 10:10:01;;;;;;;16.58;7.82;;;;;;;;;;6252314;22;20472;-84
2022/01/29 10:12:27;;;;;;;21.15;9.02;;;;;;;;;;6276907;22;20122;-82
2022/01/29 10:15:03;;;;;;;23.08;9.63;;;;;;;;;;6224867;22;20004;-84
2022/01/29 10:17:44;;;;;;;30.50;12.60;;;;;;;;;;6224016;22;20415;-82
2022/01/29 10:20:25;;;;;;;;;;;;;;;;;;6277179;22;20039;-83
2022/01/29 10:22:53;;;;;;;18.25;7.57;;;;;;;;;;6276708;22;19933;-85
2022/01/29 10:25:30;;;;;;;17.52;8.10;;;;;;;;;;6276685;22;19996;-82
2022/01/29 10:28:11;;;;;;;52.20;18.23;;;;;;;;;;6256197;22;20007;-82
2022/01/29 10:30:58;;;;;;;19.65;8.05;;;;;;;;;;6280029;22;20000;-83
2022/01/29 10:33:33;;;;;;;28.90;14.18;;;;;;;;;;6275889;22;20374;-83
2022/01/29 10:36:10;;;;;;;36.25;16.73;;;;;;;;;;6276147;22;20013;-83
2022/01/29 10:38:41;;;;;;;17.20;8.80;;;;;;;;;;6277170;22;20067;-82
2022/01/29 10:41:20;;;;;;;13.70;6.75;;;;;;;;;;6276190;22;20011;-82
2022/01/29 10:44:19;;;;;;;16.33;7.78;;;;;;;;;;6250355;22;20008;-82
2022/01/29 10:46:52;;;;;;;22.73;9.35;;;;;;;;;;6280888;22;19999;-81
2022/01/29 10:49:28;;;;;;;21.42;9.30;;;;;;;;;;6251124;22;20004;-81
2022/01/29 10:52:00;;;;;;;23.25;10.43;;;;;;;;;;6249242;22;19995;-82
2022/01/29 10:54:25;;;;;;;32.63;11.55;;;;;;;;;;6275911;22;20410;-81
2022/01/29 10:56:51;;;;;;;14.05;6.47;;;;;;;;;;6276017;22;20031;-81
2022/01/29 10:59:17;;;;;;;16.63;7.43;;;;;;;;;;6275907;22;20010;-82
2022/01/29 11:01:55;;;;;;;22.17;8.35;;;;;;;;;;6276347;22;20529;-84
2022/01/29 11:04:20;;;;;;;17.50;7.40;;;;;;;;;;6223347;22;20065;-81
2022/01/29 11:06:47;;;;;;;19.25;7.85;;;;;;;;;;6223483;22;19996;-79
2022/01/29 11:09:13;;;;;;;20.63;8.98;;;;;;;;;;6225473;22;20004;-82
2022/01/29 11:11:39;;;;;;;33.35;12.45;;;;;;;;;;6222981;22;20010;-81
2022/01/29 11:14:06;;;;;;;18.98;7.85;;;;;;;;;;6248459;22;20004;-81
2022/01/29 11:16:31;;;;;;;16.55;6.40;;;;;;;;;;6248206;22;20035;-81
2022/01/29 11:18:57;;;;;;;19.95;7.70;;;;;;;;;;6209285;22;20012;-81
2022/01/29 11:21:23;;;;;;;21.45;6.80;;;;;;;;;;6216204;22;20012;-80
2022/01/29 11:23:48;;;;;;;19.77;7.82;;;;;;;;;;6231032;22;20062;-78
2022/01/29 11:26:14;;;;;;;20.10;8.10;;;;;;;;;;6247995;22;20000;-82
2022/01/29 11:28:39;;;;;;;22.25;8.77;;;;;;;;;;6249423;22;20008;-81
2022/01/29 11:31:13;;;;;;;11.68;5.90;;;;;;;;;;6223173;22;20000;-83
2022/01/29 11:33:57;;;;;;;13.60;6.75;;;;;;;;;;6275902;22;20004;-82
2022/01/29 11:36:22;;;;;;;22.25;8.43;;;;;;;;;;6277692;22;20000;-80
2022/01/29 11:38:48;;;;;;;16.13;7.22;;;;;;;;;;6276009;22;20065;-82
2022/01/29 11:41:13;;;;;;;19.08;7.07;;;;;;;;;;6247142;22;20430;-83
2022/01/29 11:43:39;;;;;;;20.27;8.05;;;;;;;;;;6246707;22;20004;-81
2022/01/29 11:46:30;;;;;;;30.27;11.88;;;;;;;;;;6276796;22;20003;-82
2022/01/29 11:48:57;;;;;;;19.77;8.60;;;;;;;;;;6228711;22;20079;-83
2022/01/29 11:51:37;;;;;;;16.63;7.00;;;;;;;;;;6201378;22;20035;-82
2022/01/29 11:54:03;;;;;;;29.42;9.95;;;;;;;;;;6251855;22;20070;-82
2022/01/29 11:56:32;;;;;;;16.23;7.32;;;;;;;;;;6278584;22;20004;-82
2022/01/29 11:59:19;;;;;;;26.38;10.18;;;;;;;;;;6276579;22;20003;-84
2022/01/29 12:01:55;;;;;;;24.52;8.13;;;;;;;;;;6249779;22;20004;-82
2022/01/29 12:04:22;;;;;;;15.48;6.53;;;;;;;;;;6225136;22;20415;-83
2022/01/29 12:07:07;;;;;;;18.73;7.13;;;;;;;;;;6252888;22;20003;-83
2022/01/29 12:09:54;;;;;;;27.27;9.00;;;;;;;;;;6284867;22;19995;-82
2022/01/29 12:12:19;;;;;;;25.30;9.82;;;;;;;;;;6234142;22;20015;-83
2022/01/29 12:14:49;;;;;;;19.65;7.50;;;;;;;;;;6280395;22;20007;-84
2022/01/29 12:17:40;;;;;;;30.50;8.53;;;;;;;;;;6250746;22;20011;-82
2022/01/29 12:20:07;;;;;;;19.63;7.53;;;;;;;;;;6252174;22;20443;-83
2022/01/29 12:22:35;;;;;;;17.58;8.50;;;;;;;;;;6277242;22;20007;-85
2022/01/29 12:25:04;;;;;;;17.52;7.13;;;;;;;;;;6252359;22;20003;-84
2022/01/29 12:28:05;;;;;;;18.38;7.70;;;;;;;;;;6280680;22;20426;-82
2022/01/29 12:30:39;;;;;;;18.77;7.07;;;;;;;;;;6240127;22;20008;-82
2022/01/29 12:33:09;;;;;;;18.23;7.88;;;;;;;;;;6227032;22;20000;-82
2022/01/29 12:35:58;;;;;;;16.73;7.10;;;;;;;;;;6226586;22;20004;-84
2022/01/29 12:38:32;;;;;;;19.23;6.75;;;;;;;;;;6226561;22;20019;-82
2022/01/29 12:41:03;;;;;;;19.08;7.60;;;;;;;;;;6251388;22;20003;-82
2022/01/29 12:43:30;;;;;;;25.67;8.38;;;;;;;;;;6251724;22;20415;-82
2022/01/29 12:46:29;;;;;;;20.83;8.20;;;;;;;;;;6253358;22;20004;-81
2022/01/29 12:49:07;;;;;;;21.13;8.80;;;;;;;;;;6160869;22;20008;-81
2022/01/29 12:51:45;;;;;;;22.60;8.43;;;;;;;;;;6211964;22;20035;-81
2022/01/29 12:54:10;;;;;;;20.05;7.85;;;;;;;;;;6260326;22;20057;-80
2022/01/29 12:56:37;;;;;;;21.50;8.10;;;;;;;;;;6239978;22;20004;-83
2022/01/29 12:59:07;;;;;;;24.67;8.93;;;;;;;;;;6251829;22;20003;-82
2022/01/29 13:01:33;;;;;;;15.98;7.63;;;;;;;;;;6226236;22;20395;-82
2022/01/29 13:04:10;;;;;;;18.25;7.28;;;;;;;;;;6249872;22;20004;-82
2022/01/29 13:06:35;;;;;;;23.58;9.20;;;;;;;;;;6225047;22;20054;-83
2022/01/29 13:09:16;;;;;;;31.65;9.30;;;;;;;;;;6226426;22;20008;-81
2022/01/29 13:11:42;;;;;;;24.40;8.73;;;;;;;;;;6278239;22;20415;-81
2022/01/29 13:14:12;;;;;;;32.90;10.02;;;;;;;;;;6225508;22;20074;-83
2022/01/29 13:16:37;;;;;;;22.95;9.60;;;;;;;;;;6199955;22;20007;-82
2022/01/29 13:19:03;;;;;;;16.85;7.30;;;;;;;;;;6249647;22;20027;-82
2022/01/29 13:21:30;;;;;;;22.58;8.80;;;;;;;;;;6226068;22;20008;-78
2022/01/29 13:23:56;;;;;;;19.50;8.20;;;;;;;;;;6224937;22;20004;-82
2022/01/29 13:26:28;;;;;;;23.33;9.77;;;;;;;;;;6276640;22;20422;-82
2022/01/29 13:29:09;;;;;;;23.58;7.50;;;;;;;;;;6227230;22;19996;-81
2022/01/29 13:31:46;;;;;;;22.42;8.43;;;;;;;;;;6278447;22;20328;-82
2022/01/29 13:34:32;;;;;;;18.83;7.10;;;;;;;;;;6227174;22;20042;-81
2022/01/29 13:36:57;;;;;;;28.23;8.25;;;;;;;;;;6224922;22;20026;-82
2022/01/29 13:39:25;;;;;;;29.48;9.07;;;;;;;;;;6223776;22;20438;-81
2022/01/29 13:42:14;;;;;;;28.45;8.63;;;;;;;;;;6224949;22;20004;-80
2022/01/29 13:44:39;;;;;;;28.70;9.57;;;;;;;;;;6224361;22;20014;-82
2022/01/29 13:47:06;;;;;;;26.52;5.63;;;;;;;;;;6224004;22;20008;-82
2022/01/29 13:49:32;;;;;;;22.30;7.70;;;;;;;;;;6224566;22;20011;-82
2022/01/29 13:51:57;;;;;;;18.63;8.07;;;;;;;;;;6198849;22;20014;-83
2022/01/29 13:54:23;;;;;;;35.95;9.85;;;;;;;;;;6254082;22;20004;-79
2022/01/29 13:56:49;;;;;;;28.38;10.30;;;;;;;;;;6276837;22;20000;-81
2022/01/29 13:59:19;;;;;;;23.50;8.63;;;;;;;;;;6276079;22;20000;-81
2022/01/29 14:01:53;;;;;;;29.45;9.73;;;;;;;;;;6224264;22;20057;-81
2022/01/29 14:04:28;;;;;;;19.52;7.47;;;;;;;;;;6224724;22;20034;-80
2022/01/29 14:07:31;;;;;;;26.27;10.15;;;;;;;;;;6276245;22;20050;-81
2022/01/29 14:10:00;;;;;;;38.75;11.07;;;;;;;;;;6130934;23;20377;-81
2022/01/29 14:12:29;;;;;;;63.25;17.50;;;;;;;;;;6202970;22;20087;-82
2022/01/29 14:15:09;;;;;;;36.88;14.93;;;;;;;;;;6252076;22;20083;-82
2022/01/29 14:17:35;;;;;;;91.75;29.40;;;;;;;;;;6250027;22;20082;-81
2022/01/29 14:20:06;;;;;;;45.20;15.65;;;;;;;;;;6223268;22;20015;-80
2022/01/29 14:22:33;;;;;;;59.38;14.95;;;;;;;;;;6198081;22;20011;-80
2022/01/29 14:25:00;;;;;;;39.88;14.73;;;;;;;;;;6198760;22;20008;-80
2022/01/29 14:27:25;;;;;;;43.58;13.02;;;;;;;;;;6223877;22;20003;-82
2022/01/29 14:29:51;;;;;;;43.00;12.77;;;;;;;;;;6199976;22;20023;-81
2022/01/29 14:32:17;;;;;;;56.90;14.57;;;;;;;;;;6224591;22;20000;-82
2022/01/29 14:34:43;;;;;;;55.33;14.02;;;;;;;;;;6228120;22;20007;-79
2022/01/29 14:37:08;;;;;;;32.15;8.90;;;;;;;;;;6226733;22;20053;-80
2022/01/29 14:39:34;;;;;;;57.75;16.50;;;;;;;;;;6249719;22;20049;-81